Union City, TN

11:46 PM CST am 05. Dezember 2016 (GMT -0600)
Sherwood Hills | | Change Station

Höhe 430 ft 36.44 °N, 89.04 °W | Updated 20 seconds ago

Regen
Regen
43.4 °F
gefühlte 43 °F
N
0.0
Wind Wechselnd Wind aus Ost-Südost

Heute
Max. -- | schwach -- °F
--% Regenrisiko
Gestern
Max. -- | schwach -- °F
Precip. -- inch
Druck 29.72 inch
Sichtweite 1.8 Meilen
Wolken Bedeckt 400 ft
Windchill 43 °F
Taupunkt 42 °F
Feuchtigkeit 96%
Regen 0.04 inch
Schneehöhe Nicht verfügbar..
6:53 AM 4:40 PM
Erstes Viertel, 38% visible
METAR KUCY 060535Z AUTO 05005KT 1 3/4SM OVC004 06/06 A2972 RMK
Druck 29.72 inch
Sichtweite 1.8 Meilen
Wolken Bedeckt 400 ft
Windchill 43 °F
Taupunkt 42 °F
Feuchtigkeit 96%
Regen 0.04 inch
Schneehöhe Nicht verfügbar..
6:53 AM 4:40 PM
Erstes Viertel, 38% visible
METAR KUCY 060535Z AUTO 05005KT 1 3/4SM OVC004 06/06 A2972 RMK

10-Day Weather Forecast

Almanac

Astronomie

Dec. 05, 2016 Aufgang Untergang
Genaue Zeit
Bürgerliche Dämmerung
Nautische Dämmerung
Astronomische Dämmerung
Mond
Länge des sichtbaren Lichts
Tageslänge
Tomorrow will be .
, % of the Moon is Illuminated

Heutige Rekorde

State Highs State Lows

Community

WunderPhotos

Upload Photos

1,955,931 Fotos hochgeladen!

WunderBlog® & News

Nearby

Luftqualität

  Luftqualität LQ Index Schadstoff
Not available.

Schneehöhe

Station Depth Höhe

Erdbebenaktivität

Stadt Distance Mag. Time & Date
Minimum magnitude displayed is 2.5.

küstennahe Wassertemperaturen

Ort Temperatur

Stations

Wetterstationen in der Umgebung

Stationsstandort Temp. Windchill Taupunkt Feuchtigkeit Wind Precip. Höhe Aktualisiert Art
                   

Watches & Warnings

There are currently no watches in effect.